sensor_id;sensor_type;location;lat;lon;timestamp;P1;durP1;ratioP1;P2;durP2;ratioP2
42096;SDS011;27754;45.414;11.084;2024-01-10T00:00:29;19.85;;;11.82;;
42096;SDS011;27754;45.414;11.084;2024-01-10T00:02:56;23.45;;;11.75;;
42096;SDS011;27754;45.414;11.084;2024-01-10T00:05:23;23.25;;;12.27;;
42096;SDS011;27754;45.414;11.084;2024-01-10T00:07:50;20.02;;;11.30;;
42096;SDS011;27754;45.414;11.084;2024-01-10T00:10:17;19.40;;;11.35;;
42096;SDS011;27754;45.414;11.084;2024-01-10T00:12:44;19.00;;;10.75;;
42096;SDS011;27754;45.414;11.084;2024-01-10T00:15:11;16.98;;;10.48;;
42096;SDS011;27754;45.414;11.084;2024-01-10T00:17:39;17.92;;;11.25;;
42096;SDS011;27754;45.414;11.084;2024-01-10T00:20:07;18.73;;;11.13;;
42096;SDS011;27754;45.414;11.084;2024-01-10T00:22:34;22.48;;;11.82;;
42096;SDS011;27754;45.414;11.084;2024-01-10T00:25:02;19.45;;;11.77;;
42096;SDS011;27754;45.414;11.084;2024-01-10T00:27:29;24.73;;;11.93;;
42096;SDS011;27754;45.414;11.084;2024-01-10T00:29:56;16.75;;;9.63;;
42096;SDS011;27754;45.414;11.084;2024-01-10T00:32:23;20.33;;;10.35;;
42096;SDS011;27754;45.414;11.084;2024-01-10T00:34:50;21.15;;;11.68;;
42096;SDS011;27754;45.414;11.084;2024-01-10T00:37:17;18.73;;;11.00;;
42096;SDS011;27754;45.414;11.084;2024-01-10T00:39:44;21.92;;;11.52;;
42096;SDS011;27754;45.414;11.084;2024-01-10T00:42:11;18.75;;;10.82;;
42096;SDS011;27754;45.414;11.084;2024-01-10T00:44:38;18.35;;;10.80;;
42096;SDS011;27754;45.414;11.084;2024-01-10T00:47:05;17.52;;;10.85;;
42096;SDS011;27754;45.414;11.084;2024-01-10T00:49:32;17.80;;;10.40;;
42096;SDS011;27754;45.414;11.084;2024-01-10T00:52:00;16.17;;;10.30;;
42096;SDS011;27754;45.414;11.084;2024-01-10T00:54:27;19.23;;;11.05;;
42096;SDS011;27754;45.414;11.084;2024-01-10T00:56:53;14.73;;;9.50;;
42096;SDS011;27754;45.414;11.084;2024-01-10T00:59:20;15.75;;;9.73;;
42096;SDS011;27754;45.414;11.084;2024-01-10T01:01:48;16.60;;;10.13;;
42096;SDS011;27754;45.414;11.084;2024-01-10T01:04:15;19.00;;;10.75;;
42096;SDS011;27754;45.414;11.084;2024-01-10T01:06:42;15.18;;;8.95;;
42096;SDS011;27754;45.414;11.084;2024-01-10T01:09:09;16.85;;;9.32;;
42096;SDS011;27754;45.414;11.084;2024-01-10T01:11:36;13.88;;;9.02;;
42096;SDS011;27754;45.414;11.084;2024-01-10T01:14:03;16.55;;;10.25;;
42096;SDS011;27754;45.414;11.084;2024-01-10T01:16:30;17.63;;;9.07;;
42096;SDS011;27754;45.414;11.084;2024-01-10T01:18:57;15.95;;;9.40;;
42096;SDS011;27754;45.414;11.084;2024-01-10T01:21:24;14.73;;;8.75;;
42096;SDS011;27754;45.414;11.084;2024-01-10T01:23:51;17.67;;;8.82;;
42096;SDS011;27754;45.414;11.084;2024-01-10T01:26:18;19.38;;;9.20;;
42096;SDS011;27754;45.414;11.084;2024-01-10T01:28:45;12.75;;;8.43;;
42096;SDS011;27754;45.414;11.084;2024-01-10T01:31:12;17.65;;;9.27;;
42096;SDS011;27754;45.414;11.084;2024-01-10T01:33:39;14.88;;;8.93;;
42096;SDS011;27754;45.414;11.084;2024-01-10T01:36:06;16.58;;;9.32;;
42096;SDS011;27754;45.414;11.084;2024-01-10T01:38:35;17.80;;;9.65;;
42096;SDS011;27754;45.414;11.084;2024-01-10T01:41:02;16.38;;;10.23;;
42096;SDS011;27754;45.414;11.084;2024-01-10T01:43:29;20.15;;;11.38;;
42096;SDS011;27754;45.414;11.084;2024-01-10T01:45:56;16.60;;;9.43;;
42096;SDS011;27754;45.414;11.084;2024-01-10T01:48:24;17.23;;;11.25;;
42096;SDS011;27754;45.414;11.084;2024-01-10T01:50:52;19.80;;;11.10;;
42096;SDS011;27754;45.414;11.084;2024-01-10T01:53:23;15.98;;;9.70;;
42096;SDS011;27754;45.414;11.084;2024-01-10T01:55:50;17.33;;;10.05;;
42096;SDS011;27754;45.414;11.084;2024-01-10T01:58:17;16.98;;;9.85;;
42096;SDS011;27754;45.414;11.084;2024-01-10T02:00:45;20.13;;;10.32;;
42096;SDS011;27754;45.414;11.084;2024-01-10T02:03:13;16.52;;;10.15;;
42096;SDS011;27754;45.414;11.084;2024-01-10T02:05:40;17.92;;;10.82;;
42096;SDS011;27754;45.414;11.084;2024-01-10T02:08:08;17.30;;;11.02;;
42096;SDS011;27754;45.414;11.084;2024-01-10T02:10:35;19.38;;;11.20;;
42096;SDS011;27754;45.414;11.084;2024-01-10T02:13:02;19.20;;;10.15;;
42096;SDS011;27754;45.414;11.084;2024-01-10T02:15:29;15.63;;;9.45;;
42096;SDS011;27754;45.414;11.084;2024-01-10T02:17:56;19.20;;;10.43;;
42096;SDS011;27754;45.414;11.084;2024-01-10T02:20:23;15.95;;;9.90;;
42096;SDS011;27754;45.414;11.084;2024-01-10T02:22:51;18.27;;;9.52;;
42096;SDS011;27754;45.414;11.084;2024-01-10T02:25:18;16.80;;;9.48;;
42096;SDS011;27754;45.414;11.084;2024-01-10T02:27:45;16.23;;;9.98;;
42096;SDS011;27754;45.414;11.084;2024-01-10T02:30:12;17.30;;;9.10;;
42096;SDS011;27754;45.414;11.084;2024-01-10T02:32:39;20.10;;;10.05;;
42096;SDS011;27754;45.414;11.084;2024-01-10T02:35:06;14.93;;;9.27;;
42096;SDS011;27754;45.414;11.084;2024-01-10T02:37:34;16.58;;;10.40;;
42096;SDS011;27754;45.414;11.084;2024-01-10T02:40:01;16.85;;;9.35;;
42096;SDS011;27754;45.414;11.084;2024-01-10T02:42:29;18.17;;;9.63;;
42096;SDS011;27754;45.414;11.084;2024-01-10T02:44:56;16.90;;;9.10;;
42096;SDS011;27754;45.414;11.084;2024-01-10T02:47:23;18.85;;;10.15;;
42096;SDS011;27754;45.414;11.084;2024-01-10T02:49:50;16.23;;;9.80;;
42096;SDS011;27754;45.414;11.084;2024-01-10T02:52:17;13.88;;;8.85;;
42096;SDS011;27754;45.414;11.084;2024-01-10T02:54:46;16.73;;;10.00;;
42096;SDS011;27754;45.414;11.084;2024-01-10T02:57:13;16.38;;;9.50;;
42096;SDS011;27754;45.414;11.084;2024-01-10T02:59:40;20.30;;;11.05;;
42096;SDS011;27754;45.414;11.084;2024-01-10T03:02:07;16.63;;;10.18;;
42096;SDS011;27754;45.414;11.084;2024-01-10T03:04:35;16.02;;;9.25;;
42096;SDS011;27754;45.414;11.084;2024-01-10T03:07:02;15.73;;;9.80;;
42096;SDS011;27754;45.414;11.084;2024-01-10T03:09:29;14.48;;;8.45;;
42096;SDS011;27754;45.414;11.084;2024-01-10T03:11:56;17.85;;;9.43;;
42096;SDS011;27754;45.414;11.084;2024-01-10T03:14:23;15.50;;;9.15;;
42096;SDS011;27754;45.414;11.084;2024-01-10T03:16:50;16.00;;;9.43;;
42096;SDS011;27754;45.414;11.084;2024-01-10T03:19:17;17.25;;;9.68;;
42096;SDS011;27754;45.414;11.084;2024-01-10T03:21:44;19.50;;;10.50;;
42096;SDS011;27754;45.414;11.084;2024-01-10T03:24:11;16.63;;;9.75;;
42096;SDS011;27754;45.414;11.084;2024-01-10T03:26:38;17.08;;;9.40;;
42096;SDS011;27754;45.414;11.084;2024-01-10T03:29:05;18.45;;;9.85;;
42096;SDS011;27754;45.414;11.084;2024-01-10T03:31:32;17.80;;;10.52;;
42096;SDS011;27754;45.414;11.084;2024-01-10T03:33:59;15.85;;;9.63;;
42096;SDS011;27754;45.414;11.084;2024-01-10T03:36:26;16.00;;;10.13;;
42096;SDS011;27754;45.414;11.084;2024-01-10T03:38:53;19.77;;;11.23;;
42096;SDS011;27754;45.414;11.084;2024-01-10T03:41:20;16.75;;;10.05;;
42096;SDS011;27754;45.414;11.084;2024-01-10T03:43:48;19.38;;;10.93;;
42096;SDS011;27754;45.414;11.084;2024-01-10T03:46:15;16.88;;;10.10;;
42096;SDS011;27754;45.414;11.084;2024-01-10T03:48:43;17.02;;;10.43;;
42096;SDS011;27754;45.414;11.084;2024-01-10T03:51:18;17.95;;;10.65;;
42096;SDS011;27754;45.414;11.084;2024-01-10T03:53:45;19.42;;;10.25;;
42096;SDS011;27754;45.414;11.084;2024-01-10T03:56:12;19.15;;;10.85;;
42096;SDS011;27754;45.414;11.084;2024-01-10T03:58:40;18.23;;;10.52;;
42096;SDS011;27754;45.414;11.084;2024-01-10T04:01:07;22.23;;;12.00;;
42096;SDS011;27754;45.414;11.084;2024-01-10T04:03:36;22.13;;;12.55;;
42096;SDS011;27754;45.414;11.084;2024-01-10T04:06:03;20.67;;;11.23;;
42096;SDS011;27754;45.414;11.084;2024-01-10T04:08:31;17.98;;;10.93;;
42096;SDS011;27754;45.414;11.084;2024-01-10T04:10:58;21.08;;;10.65;;
42096;SDS011;27754;45.414;11.084;2024-01-10T04:13:26;21.45;;;11.90;;
42096;SDS011;27754;45.414;11.084;2024-01-10T04:15:53;20.48;;;11.70;;
42096;SDS011;27754;45.414;11.084;2024-01-10T04:18:20;20.42;;;11.85;;
42096;SDS011;27754;45.414;11.084;2024-01-10T04:20:49;20.08;;;12.50;;
42096;SDS011;27754;45.414;11.084;2024-01-10T04:23:16;19.48;;;11.52;;
42096;SDS011;27754;45.414;11.084;2024-01-10T04:25:43;21.63;;;12.20;;
42096;SDS011;27754;45.414;11.084;2024-01-10T04:28:10;21.45;;;12.10;;
42096;SDS011;27754;45.414;11.084;2024-01-10T04:30:37;22.58;;;12.60;;
42096;SDS011;27754;45.414;11.084;2024-01-10T04:33:05;23.50;;;12.75;;
42096;SDS011;27754;45.414;11.084;2024-01-10T04:35:32;26.65;;;14.13;;
42096;SDS011;27754;45.414;11.084;2024-01-10T04:37:59;23.45;;;12.80;;
42096;SDS011;27754;45.414;11.084;2024-01-10T04:40:26;20.88;;;12.23;;
42096;SDS011;27754;45.414;11.084;2024-01-10T04:42:53;23.15;;;12.63;;
42096;SDS011;27754;45.414;11.084;2024-01-10T04:45:20;26.42;;;12.80;;
42096;SDS011;27754;45.414;11.084;2024-01-10T04:47:47;21.05;;;12.10;;
42096;SDS011;27754;45.414;11.084;2024-01-10T04:50:16;23.38;;;12.93;;
42096;SDS011;27754;45.414;11.084;2024-01-10T04:52:43;22.80;;;12.80;;
42096;SDS011;27754;45.414;11.084;2024-01-10T04:55:10;22.20;;;12.77;;
42096;SDS011;27754;45.414;11.084;2024-01-10T04:57:37;21.38;;;13.00;;
42096;SDS011;27754;45.414;11.084;2024-01-10T05:00:04;18.80;;;11.95;;
42096;SDS011;27754;45.414;11.084;2024-01-10T05:02:33;19.70;;;12.25;;
42096;SDS011;27754;45.414;11.084;2024-01-10T05:05:00;24.83;;;12.85;;
42096;SDS011;27754;45.414;11.084;2024-01-10T05:07:27;25.67;;;12.48;;
42096;SDS011;27754;45.414;11.084;2024-01-10T05:09:54;19.38;;;11.15;;
42096;SDS011;27754;45.414;11.084;2024-01-10T05:12:22;19.98;;;11.30;;
42096;SDS011;27754;45.414;11.084;2024-01-10T05:14:49;23.55;;;11.73;;
42096;SDS011;27754;45.414;11.084;2024-01-10T05:17:16;18.42;;;11.13;;
42096;SDS011;27754;45.414;11.084;2024-01-10T05:19:43;22.30;;;12.40;;
42096;SDS011;27754;45.414;11.084;2024-01-10T05:22:11;18.58;;;11.23;;
42096;SDS011;27754;45.414;11.084;2024-01-10T05:24:39;23.48;;;10.52;;
42096;SDS011;27754;45.414;11.084;2024-01-10T05:27:05;22.08;;;10.98;;
42096;SDS011;27754;45.414;11.084;2024-01-10T05:29:33;22.55;;;10.95;;
42096;SDS011;27754;45.414;11.084;2024-01-10T05:32:00;22.42;;;10.38;;
42096;SDS011;27754;45.414;11.084;2024-01-10T05:34:27;18.75;;;10.00;;
42096;SDS011;27754;45.414;11.084;2024-01-10T05:36:54;17.80;;;9.68;;
42096;SDS011;27754;45.414;11.084;2024-01-10T05:39:21;19.13;;;10.68;;
42096;SDS011;27754;45.414;11.084;2024-01-10T05:41:48;17.55;;;8.93;;
42096;SDS011;27754;45.414;11.084;2024-01-10T05:44:17;14.90;;;9.05;;
42096;SDS011;27754;45.414;11.084;2024-01-10T05:46:44;23.20;;;9.27;;
42096;SDS011;27754;45.414;11.084;2024-01-10T05:49:11;27.48;;;9.88;;
42096;SDS011;27754;45.414;11.084;2024-01-10T05:51:38;14.52;;;8.35;;
42096;SDS011;27754;45.414;11.084;2024-01-10T05:54:05;15.63;;;9.23;;
42096;SDS011;27754;45.414;11.084;2024-01-10T05:56:34;18.27;;;10.32;;
42096;SDS011;27754;45.414;11.084;2024-01-10T05:59:03;20.73;;;10.30;;
42096;SDS011;27754;45.414;11.084;2024-01-10T06:01:30;17.33;;;8.75;;
42096;SDS011;27754;45.414;11.084;2024-01-10T06:03:57;22.20;;;10.50;;
42096;SDS011;27754;45.414;11.084;2024-01-10T06:06:24;18.60;;;10.02;;
42096;SDS011;27754;45.414;11.084;2024-01-10T06:08:51;18.48;;;9.70;;
42096;SDS011;27754;45.414;11.084;2024-01-10T06:11:20;23.23;;;11.30;;
42096;SDS011;27754;45.414;11.084;2024-01-10T06:13:48;20.58;;;10.50;;
42096;SDS011;27754;45.414;11.084;2024-01-10T06:16:22;16.03;;;9.87;;
42096;SDS011;27754;45.414;11.084;2024-01-10T06:18:50;22.30;;;10.85;;
42096;SDS011;27754;45.414;11.084;2024-01-10T06:21:18;22.25;;;9.73;;
42096;SDS011;27754;45.414;11.084;2024-01-10T06:23:45;16.98;;;9.38;;
42096;SDS011;27754;45.414;11.084;2024-01-10T06:26:14;19.42;;;10.77;;
42096;SDS011;27754;45.414;11.084;2024-01-10T06:28:41;22.85;;;10.18;;
42096;SDS011;27754;45.414;11.084;2024-01-10T06:31:08;22.88;;;12.13;;
42096;SDS011;27754;45.414;11.084;2024-01-10T06:33:38;21.83;;;12.82;;
42096;SDS011;27754;45.414;11.084;2024-01-10T06:36:05;22.08;;;11.35;;
42096;SDS011;27754;45.414;11.084;2024-01-10T06:38:33;19.55;;;10.57;;
42096;SDS011;27754;45.414;11.084;2024-01-10T06:41:06;26.05;;;11.68;;
42096;SDS011;27754;45.414;11.084;2024-01-10T06:43:35;19.55;;;10.57;;
42096;SDS011;27754;45.414;11.084;2024-01-10T06:46:05;18.52;;;10.50;;
42096;SDS011;27754;45.414;11.084;2024-01-10T06:48:33;24.55;;;12.05;;
42096;SDS011;27754;45.414;11.084;2024-01-10T06:51:00;21.40;;;10.93;;
42096;SDS011;27754;45.414;11.084;2024-01-10T06:53:27;20.63;;;10.82;;
42096;SDS011;27754;45.414;11.084;2024-01-10T06:55:54;19.67;;;10.35;;
42096;SDS011;27754;45.414;11.084;2024-01-10T06:58:21;28.13;;;13.00;;
42096;SDS011;27754;45.414;11.084;2024-01-10T07:00:48;19.98;;;9.48;;
42096;SDS011;27754;45.414;11.084;2024-01-10T07:03:17;21.08;;;10.57;;
42096;SDS011;27754;45.414;11.084;2024-01-10T07:05:44;23.20;;;10.32;;
42096;SDS011;27754;45.414;11.084;2024-01-10T07:08:11;25.30;;;9.98;;
42096;SDS011;27754;45.414;11.084;2024-01-10T07:10:38;21.60;;;11.63;;
42096;SDS011;27754;45.414;11.084;2024-01-10T07:13:06;25.67;;;12.20;;
42096;SDS011;27754;45.414;11.084;2024-01-10T07:15:33;19.98;;;11.00;;
42096;SDS011;27754;45.414;11.084;2024-01-10T07:18:00;21.92;;;11.00;;
42096;SDS011;27754;45.414;11.084;2024-01-10T07:20:27;24.75;;;11.55;;
42096;SDS011;27754;45.414;11.084;2024-01-10T07:22:54;21.27;;;12.13;;
42096;SDS011;27754;45.414;11.084;2024-01-10T07:25:21;19.77;;;11.30;;
42096;SDS011;27754;45.414;11.084;2024-01-10T07:27:51;22.13;;;10.90;;
42096;SDS011;27754;45.414;11.084;2024-01-10T07:30:18;19.98;;;10.60;;
42096;SDS011;27754;45.414;11.084;2024-01-10T07:32:45;21.13;;;10.45;;
42096;SDS011;27754;45.414;11.084;2024-01-10T07:35:13;20.38;;;10.68;;
42096;SDS011;27754;45.414;11.084;2024-01-10T07:37:40;23.45;;;12.25;;
42096;SDS011;27754;45.414;11.084;2024-01-10T07:40:11;20.50;;;11.02;;
42096;SDS011;27754;45.414;11.084;2024-01-10T07:42:40;28.33;;;11.10;;
42096;SDS011;27754;45.414;11.084;2024-01-10T07:45:07;26.27;;;11.57;;
42096;SDS011;27754;45.414;11.084;2024-01-10T07:47:35;29.48;;;11.75;;
42096;SDS011;27754;45.414;11.084;2024-01-10T07:50:06;26.23;;;12.07;;
42096;SDS011;27754;45.414;11.084;2024-01-10T07:52:34;26.63;;;13.05;;
42096;SDS011;27754;45.414;11.084;2024-01-10T07:55:02;22.25;;;11.82;;
42096;SDS011;27754;45.414;11.084;2024-01-10T07:57:33;27.73;;;12.75;;
42096;SDS011;27754;45.414;11.084;2024-01-10T08:00:00;26.88;;;12.88;;
42096;SDS011;27754;45.414;11.084;2024-01-10T08:02:34;31.60;;;12.40;;
42096;SDS011;27754;45.414;11.084;2024-01-10T08:05:04;18.73;;;11.40;;
42096;SDS011;27754;45.414;11.084;2024-01-10T08:07:32;27.67;;;13.27;;
42096;SDS011;27754;45.414;11.084;2024-01-10T08:09:59;33.28;;;12.65;;
42096;SDS011;27754;45.414;11.084;2024-01-10T08:12:26;34.53;;;13.35;;
42096;SDS011;27754;45.414;11.084;2024-01-10T08:14:54;26.40;;;12.73;;
42096;SDS011;27754;45.414;11.084;2024-01-10T08:17:21;26.45;;;12.98;;
42096;SDS011;27754;45.414;11.084;2024-01-10T08:19:49;24.23;;;13.52;;
42096;SDS011;27754;45.414;11.084;2024-01-10T08:22:18;27.17;;;13.32;;
42096;SDS011;27754;45.414;11.084;2024-01-10T08:24:46;24.02;;;13.60;;
42096;SDS011;27754;45.414;11.084;2024-01-10T08:27:14;28.98;;;13.20;;
42096;SDS011;27754;45.414;11.084;2024-01-10T08:29:43;27.33;;;12.75;;
42096;SDS011;27754;45.414;11.084;2024-01-10T08:32:11;27.58;;;12.75;;
42096;SDS011;27754;45.414;11.084;2024-01-10T08:34:38;28.65;;;15.60;;
42096;SDS011;27754;45.414;11.084;2024-01-10T08:37:06;28.40;;;15.98;;
42096;SDS011;27754;45.414;11.084;2024-01-10T08:39:33;30.58;;;17.08;;
42096;SDS011;27754;45.414;11.084;2024-01-10T08:42:00;22.15;;;13.95;;
42096;SDS011;27754;45.414;11.084;2024-01-10T08:44:27;25.98;;;13.80;;
42096;SDS011;27754;45.414;11.084;2024-01-10T08:46:57;22.75;;;12.15;;
42096;SDS011;27754;45.414;11.084;2024-01-10T08:49:24;27.08;;;13.32;;
42096;SDS011;27754;45.414;11.084;2024-01-10T08:51:51;21.38;;;12.70;;
42096;SDS011;27754;45.414;11.084;2024-01-10T08:54:19;22.80;;;12.18;;
42096;SDS011;27754;45.414;11.084;2024-01-10T08:56:49;20.73;;;12.30;;
42096;SDS011;27754;45.414;11.084;2024-01-10T08:59:18;29.70;;;11.95;;
42096;SDS011;27754;45.414;11.084;2024-01-10T09:01:45;23.70;;;11.43;;
42096;SDS011;27754;45.414;11.084;2024-01-10T09:04:12;23.33;;;11.55;;
42096;SDS011;27754;45.414;11.084;2024-01-10T09:06:39;25.60;;;12.90;;
42096;SDS011;27754;45.414;11.084;2024-01-10T09:09:06;26.65;;;12.13;;
42096;SDS011;27754;45.414;11.084;2024-01-10T09:11:34;21.63;;;12.57;;
42096;SDS011;27754;45.414;11.084;2024-01-10T09:14:07;27.83;;;11.52;;
42096;SDS011;27754;45.414;11.084;2024-01-10T09:16:37;25.85;;;12.93;;
42096;SDS011;27754;45.414;11.084;2024-01-10T09:19:05;22.77;;;12.93;;
42096;SDS011;27754;45.414;11.084;2024-01-10T09:21:36;22.38;;;12.52;;
42096;SDS011;27754;45.414;11.084;2024-01-10T09:24:04;23.73;;;12.85;;
42096;SDS011;27754;45.414;11.084;2024-01-10T09:26:52;21.30;;;12.73;;
42096;SDS011;27754;45.414;11.084;2024-01-10T09:29:20;19.98;;;11.98;;
42096;SDS011;27754;45.414;11.084;2024-01-10T09:31:50;21.02;;;11.88;;
42096;SDS011;27754;45.414;11.084;2024-01-10T09:34:17;25.35;;;12.50;;
42096;SDS011;27754;45.414;11.084;2024-01-10T09:36:45;27.60;;;12.95;;
42096;SDS011;27754;45.414;11.084;2024-01-10T09:39:12;26.02;;;12.13;;
42096;SDS011;27754;45.414;11.084;2024-01-10T09:41:42;22.95;;;12.70;;
42096;SDS011;27754;45.414;11.084;2024-01-10T09:44:14;19.98;;;12.32;;
42096;SDS011;27754;45.414;11.084;2024-01-10T09:46:53;23.05;;;11.77;;
42096;SDS011;27754;45.414;11.084;2024-01-10T09:49:22;18.10;;;11.77;;
42096;SDS011;27754;45.414;11.084;2024-01-10T09:51:50;24.60;;;12.40;;
42096;SDS011;27754;45.414;11.084;2024-01-10T09:54:20;19.23;;;10.85;;
42096;SDS011;27754;45.414;11.084;2024-01-10T09:56:49;17.15;;;8.73;;
42096;SDS011;27754;45.414;11.084;2024-01-10T09:59:16;21.48;;;9.75;;
42096;SDS011;27754;45.414;11.084;2024-01-10T10:01:43;18.38;;;9.40;;
42096;SDS011;27754;45.414;11.084;2024-01-10T10:04:11;17.98;;;9.65;;
42096;SDS011;27754;45.414;11.084;2024-01-10T10:06:39;16.30;;;9.23;;
42096;SDS011;27754;45.414;11.084;2024-01-10T10:09:08;20.60;;;10.82;;
42096;SDS011;27754;45.414;11.084;2024-01-10T10:11:36;14.95;;;6.38;;
42096;SDS011;27754;45.414;11.084;2024-01-10T10:14:15;16.63;;;7.53;;
42096;SDS011;27754;45.414;11.084;2024-01-10T10:16:44;12.68;;;6.00;;
42096;SDS011;27754;45.414;11.084;2024-01-10T10:19:11;13.98;;;6.88;;
42096;SDS011;27754;45.414;11.084;2024-01-10T10:21:50;12.77;;;6.18;;
42096;SDS011;27754;45.414;11.084;2024-01-10T10:24:20;11.38;;;6.70;;
42096;SDS011;27754;45.414;11.084;2024-01-10T10:26:51;11.90;;;6.45;;
42096;SDS011;27754;45.414;11.084;2024-01-10T10:29:21;15.35;;;6.80;;
42096;SDS011;27754;45.414;11.084;2024-01-10T10:31:50;10.82;;;6.55;;
42096;SDS011;27754;45.414;11.084;2024-01-10T10:34:23;12.23;;;7.00;;
42096;SDS011;27754;45.414;11.084;2024-01-10T10:36:51;17.02;;;6.78;;
42096;SDS011;27754;45.414;11.084;2024-01-10T10:39:18;13.35;;;6.30;;
42096;SDS011;27754;45.414;11.084;2024-01-10T10:41:47;12.73;;;6.78;;
42096;SDS011;27754;45.414;11.084;2024-01-10T10:44:17;10.55;;;5.47;;
42096;SDS011;27754;45.414;11.084;2024-01-10T10:46:52;13.65;;;5.90;;
42096;SDS011;27754;45.414;11.084;2024-01-10T10:49:39;11.23;;;5.78;;
42096;SDS011;27754;45.414;11.084;2024-01-10T10:52:14;11.45;;;5.50;;
42096;SDS011;27754;45.414;11.084;2024-01-10T10:54:42;11.38;;;6.07;;
42096;SDS011;27754;45.414;11.084;2024-01-10T10:57:12;10.00;;;5.55;;
42096;SDS011;27754;45.414;11.084;2024-01-10T10:59:42;12.80;;;6.10;;
42096;SDS011;27754;45.414;11.084;2024-01-10T11:02:10;9.93;;;6.07;;
42096;SDS011;27754;45.414;11.084;2024-01-10T11:04:37;9.45;;;5.82;;
42096;SDS011;27754;45.414;11.084;2024-01-10T11:07:09;9.63;;;5.60;;
42096;SDS011;27754;45.414;11.084;2024-01-10T11:09:36;11.35;;;5.10;;
42096;SDS011;27754;45.414;11.084;2024-01-10T11:12:09;10.73;;;5.32;;
42096;SDS011;27754;45.414;11.084;2024-01-10T11:25:50;9.68;;;5.22;;
42096;SDS011;27754;45.414;11.084;2024-01-10T11:28:18;10.35;;;5.78;;
42096;SDS011;27754;45.414;11.084;2024-01-10T11:30:49;9.85;;;5.80;;
42096;SDS011;27754;45.414;11.084;2024-01-10T11:33:24;11.38;;;6.03;;
42096;SDS011;27754;45.414;11.084;2024-01-10T11:36:06;11.45;;;5.30;;
42096;SDS011;27754;45.414;11.084;2024-01-10T11:39:05;10.77;;;5.55;;
42096;SDS011;27754;45.414;11.084;2024-01-10T11:41:35;11.45;;;6.38;;
42096;SDS011;27754;45.414;11.084;2024-01-10T11:44:25;10.15;;;6.03;;
42096;SDS011;27754;45.414;11.084;2024-01-10T11:46:53;11.93;;;5.60;;
42096;SDS011;27754;45.414;11.084;2024-01-10T11:49:24;9.10;;;5.30;;
42096;SDS011;27754;45.414;11.084;2024-01-10T11:51:53;10.85;;;5.82;;
42096;SDS011;27754;45.414;11.084;2024-01-10T11:54:38;10.95;;;6.05;;
42096;SDS011;27754;45.414;11.084;2024-01-10T11:57:23;10.05;;;5.55;;
42096;SDS011;27754;45.414;11.084;2024-01-10T11:59:57;10.73;;;5.70;;
42096;SDS011;27754;45.414;11.084;2024-01-10T12:02:30;9.82;;;5.78;;
42096;SDS011;27754;45.414;11.084;2024-01-10T12:04:57;10.13;;;6.05;;
42096;SDS011;27754;45.414;11.084;2024-01-10T12:07:24;9.35;;;5.80;;
42096;SDS011;27754;45.414;11.084;2024-01-10T12:09:52;10.73;;;6.03;;
42096;SDS011;27754;45.414;11.084;2024-01-10T12:12:21;10.55;;;6.47;;
42096;SDS011;27754;45.414;11.084;2024-01-10T13:42:43;15.48;;;7.85;;
42096;SDS011;27754;45.414;11.084;2024-01-10T13:45:10;13.57;;;7.07;;
42096;SDS011;27754;45.414;11.084;2024-01-10T13:47:37;14.38;;;8.27;;
42096;SDS011;27754;45.414;11.084;2024-01-10T13:50:06;12.95;;;7.85;;
42096;SDS011;27754;45.414;11.084;2024-01-10T13:52:35;15.25;;;7.75;;
42096;SDS011;27754;45.414;11.084;2024-01-10T13:55:02;13.05;;;7.70;;
42096;SDS011;27754;45.414;11.084;2024-01-10T13:57:31;11.75;;;7.35;;
42096;SDS011;27754;45.414;11.084;2024-01-10T13:59:59;13.15;;;7.70;;
42096;SDS011;27754;45.414;11.084;2024-01-10T14:02:37;13.45;;;7.45;;
42096;SDS011;27754;45.414;11.084;2024-01-10T14:05:04;13.73;;;7.95;;
42096;SDS011;27754;45.414;11.084;2024-01-10T14:07:32;15.75;;;7.35;;
42096;SDS011;27754;45.414;11.084;2024-01-10T14:10:00;13.77;;;8.13;;
42096;SDS011;27754;45.414;11.084;2024-01-10T14:12:30;14.63;;;7.82;;
42096;SDS011;27754;45.414;11.084;2024-01-10T14:14:57;13.63;;;7.57;;
42096;SDS011;27754;45.414;11.084;2024-01-10T14:17:28;14.40;;;7.93;;
42096;SDS011;27754;45.414;11.084;2024-01-10T14:19:55;14.57;;;8.48;;
42096;SDS011;27754;45.414;11.084;2024-01-10T14:22:22;13.45;;;7.75;;
42096;SDS011;27754;45.414;11.084;2024-01-10T14:24:58;14.45;;;8.10;;
42096;SDS011;27754;45.414;11.084;2024-01-10T14:27:28;12.55;;;7.53;;
42096;SDS011;27754;45.414;11.084;2024-01-10T14:29:55;14.70;;;7.65;;
42096;SDS011;27754;45.414;11.084;2024-01-10T14:32:22;14.30;;;7.28;;
42096;SDS011;27754;45.414;11.084;2024-01-10T14:34:50;13.30;;;8.05;;
42096;SDS011;27754;45.414;11.084;2024-01-10T14:37:17;17.65;;;8.25;;
42096;SDS011;27754;45.414;11.084;2024-01-10T14:39:44;17.30;;;8.80;;
42096;SDS011;27754;45.414;11.084;2024-01-10T14:42:11;13.48;;;7.30;;
42096;SDS011;27754;45.414;11.084;2024-01-10T14:44:40;17.98;;;8.75;;
42096;SDS011;27754;45.414;11.084;2024-01-10T14:47:07;16.40;;;9.43;;
42096;SDS011;27754;45.414;11.084;2024-01-10T14:49:38;14.55;;;7.93;;
42096;SDS011;27754;45.414;11.084;2024-01-10T14:52:06;18.25;;;8.80;;
42096;SDS011;27754;45.414;11.084;2024-01-10T14:54:34;15.32;;;8.60;;
42096;SDS011;27754;45.414;11.084;2024-01-10T14:57:01;16.70;;;8.40;;
42096;SDS011;27754;45.414;11.084;2024-01-10T14:59:29;18.10;;;8.10;;
42096;SDS011;27754;45.414;11.084;2024-01-10T15:02:10;15.77;;;8.38;;
42096;SDS011;27754;45.414;11.084;2024-01-10T15:04:38;15.30;;;8.60;;
42096;SDS011;27754;45.414;11.084;2024-01-10T15:07:06;23.33;;;8.80;;
42096;SDS011;27754;45.414;11.084;2024-01-10T15:09:33;20.27;;;9.00;;
42096;SDS011;27754;45.414;11.084;2024-01-10T15:12:05;19.88;;;9.63;;
42096;SDS011;27754;45.414;11.084;2024-01-10T15:14:35;14.40;;;8.95;;
42096;SDS011;27754;45.414;11.084;2024-01-10T15:17:03;17.02;;;9.00;;
42096;SDS011;27754;45.414;11.084;2024-01-10T15:19:32;14.93;;;8.52;;
42096;SDS011;27754;45.414;11.084;2024-01-10T15:22:01;16.10;;;8.73;;
42096;SDS011;27754;45.414;11.084;2024-01-10T15:24:29;18.55;;;9.48;;
42096;SDS011;27754;45.414;11.084;2024-01-10T15:26:57;19.08;;;9.45;;
42096;SDS011;27754;45.414;11.084;2024-01-10T15:29:29;22.17;;;10.82;;
42096;SDS011;27754;45.414;11.084;2024-01-10T15:31:57;17.85;;;10.05;;
42096;SDS011;27754;45.414;11.084;2024-01-10T15:34:25;18.90;;;9.70;;
42096;SDS011;27754;45.414;11.084;2024-01-10T15:36:53;17.92;;;9.13;;
42096;SDS011;27754;45.414;11.084;2024-01-10T15:39:22;16.15;;;9.65;;
42096;SDS011;27754;45.414;11.084;2024-01-10T15:41:51;18.52;;;10.07;;
42096;SDS011;27754;45.414;11.084;2024-01-10T15:44:18;18.35;;;10.52;;
42096;SDS011;27754;45.414;11.084;2024-01-10T15:46:47;19.85;;;9.75;;
42096;SDS011;27754;45.414;11.084;2024-01-10T15:49:15;16.80;;;9.20;;
42096;SDS011;27754;45.414;11.084;2024-01-10T15:51:49;23.98;;;10.90;;
42096;SDS011;27754;45.414;11.084;2024-01-10T15:54:16;19.98;;;10.55;;
42096;SDS011;27754;45.414;11.084;2024-01-10T15:56:44;22.90;;;10.82;;
42096;SDS011;27754;45.414;11.084;2024-01-10T15:59:13;18.42;;;10.27;;